ADDS METAR Data INFO
IDs: Format: Raw Decoded Include TAF

Data at: 1113 UTC 21 Feb 2018

KLNP 201455Z AUTO 19009G17KT 10SM CLR 18/12 A3038 RMK AO2
KLNP 201435Z AUTO 20008G15KT 10SM CLR 17/12 A3038 RMK AO2
KLNP 201415Z AUTO 19011G15KT 10SM CLR 17/12 A3038 RMK AO2
KLNP 201355Z AUTO 19010G15KT 10SM CLR 16/12 A3037 RMK AO2
KLNP 201335Z AUTO 19008G14KT 10SM CLR 16/12 A3037 RMK AO2
KLNP 201315Z AUTO 20008KT 10SM CLR 15/12 A3037 RMK AO2
KLNP 201255Z AUTO 19009G16KT 10SM CLR 14/11 A3036 RMK AO2
KLNP 201235Z AUTO 21008KT 10SM CLR 13/11 A3036 RMK AO2
KLNP 201215Z AUTO 20007KT 10SM CLR 13/11 A3036 RMK AO2
KLNP 201155Z AUTO 22007KT 10SM CLR 13/11 A3035 RMK AO2
KLNP 201135Z AUTO 21007KT 10SM CLR 14/11 A3035 RMK AO2
KLNP 201115Z AUTO 19008KT 10SM CLR 15/11 A3034 RMK AO2
KLNP 201055Z AUTO 19008KT 10SM CLR 14/11 A3034 RMK AO2
KLNP 201035Z AUTO 20009KT 10SM CLR 14/11 A3034 RMK AO2
KLNP 201015Z AUTO 20010KT 10SM CLR 14/11 A3033 RMK AO2
KLNP 200955Z AUTO 17012KT 10SM CLR 15/11 A3033 RMK AO2
KLNP 200935Z AUTO 17013KT 10SM CLR 15/11 A3032 RMK AO2
KLNP 200915Z AUTO 19009KT 10SM CLR 15/11 A3032 RMK AO2
KLNP 200855Z AUTO 20008KT 10SM CLR 15/11 A3032 RMK AO2
KLNP 200835Z AUTO 18011G17KT 10SM CLR 15/11 A3031 RMK AO2
KLNP 200815Z AUTO 18010G18KT 10SM CLR 15/11 A3031 RMK AO2
KLNP 200755Z AUTO 20010G14KT 10SM CLR 15/11 A3032 RMK AO2
KLNP 200735Z AUTO 17008G15KT 10SM CLR 15/11 A3033 RMK AO2
KLNP 200715Z AUTO 18011G17KT 10SM CLR 15/11 A3033 RMK AO2
KLNP 200655Z AUTO 19012G18KT 10SM CLR 15/11 A3032 RMK AO2
KLNP 200635Z AUTO 19016G21KT 10SM CLR 16/11 A3031 RMK AO2
KLNP 200615Z AUTO 19012G21KT 10SM CLR 16/11 A3031 RMK AO2
KLNP 200555Z AUTO 19013G20KT 10SM CLR 16/11 A3031 RMK AO2
KLNP 200535Z AUTO 19015G20KT 10SM SCT047 16/10 A3031 RMK AO2
KLNP 200515Z AUTO 19013G19KT 10SM SCT047 16/11 A3031 RMK AO2
KLNP 200455Z AUTO 20014G19KT 10SM SCT047 16/11 A3031 RMK AO2
KLNP 200435Z AUTO 19012G18KT 10SM SCT050 16/11 A3031 RMK AO2
KLNP 200415Z AUTO 19013G16KT 10SM SCT050 16/11 A3031 RMK AO2
KLNP 200355Z AUTO 18009G15KT 10SM BKN050 16/11 A3031 RMK AO2
KLNP 200335Z AUTO 18007G14KT 10SM SCT050 16/12 A3031 RMK AO2
KLNP 200315Z AUTO 17007KT 10SM SCT050 16/12 A3030 RMK AO2
KLNP 200255Z AUTO 17010KT 10SM SCT050 16/12 A3030 RMK AO2
KLNP 200235Z AUTO 18008G16KT 10SM CLR 16/12 A3030 RMK AO2
KLNP 200215Z AUTO 17009G17KT 10SM CLR 17/12 A3029 RMK AO2
KLNP 200155Z AUTO 17012G17KT 10SM CLR 16/12 A3029 RMK AO2
KLNP 200135Z AUTO 18007G14KT 10SM CLR 16/12 A3030 RMK AO2
KLNP 200115Z AUTO 20009G15KT 10SM CLR 16/12 A3030 RMK AO2
KLNP 200055Z AUTO 20008G15KT 10SM CLR 16/12 A3030 RMK AO2
KLNP 200035Z AUTO 20009G14KT 10SM CLR 16/12 A3030 RMK AO2
KLNP 200015Z AUTO 20008KT 10SM SCT046 16/12 A3030 RMK AO2
KLNP 192355Z AUTO 20008KT 10SM SCT042 SCT048 16/12 A3030 RMK AO2
KLNP 192335Z AUTO 19006KT 10SM BKN042 OVC048 16/12 A3029 RMK AO2
KLNP 192315Z AUTO 20006KT 10SM OVC043 17/12 A3029 RMK AO2